createdAt,value
2019-02-26T11:49:47.298Z,3.90
2019-02-26T11:52:19.654Z,4.03
2019-02-26T11:54:46.289Z,4.70
2019-02-26T11:57:15.357Z,3.95
2019-02-26T11:59:45.470Z,5.60
2019-02-26T12:02:14.006Z,4.25
2019-02-26T12:04:42.594Z,4.25
2019-02-26T12:07:11.229Z,5.10
2019-02-26T12:09:40.775Z,4.87
2019-02-26T12:12:11.620Z,4.37
2019-02-26T12:14:43.142Z,5.12
2019-02-26T12:17:10.594Z,5.72
2019-02-26T12:19:39.185Z,4.55
2019-02-26T12:22:07.806Z,4.17
2019-02-26T12:24:36.476Z,3.45
2019-02-26T12:27:07.113Z,4.70
2019-02-26T12:29:35.509Z,3.92
2019-02-26T12:32:04.732Z,4.00
2019-02-26T12:34:35.233Z,3.72
2019-02-26T12:37:06.623Z,3.55
2019-02-26T12:39:35.399Z,4.08
2019-02-26T12:42:04.057Z,4.28
2019-02-26T12:44:34.888Z,3.62
2019-02-26T12:47:02.957Z,4.08
2019-02-26T12:49:33.286Z,3.02
2019-02-26T12:52:03.317Z,3.65
2019-02-26T12:54:33.670Z,3.77
2019-02-26T12:57:04.254Z,3.00
2019-02-26T12:59:32.932Z,3.40
2019-02-26T13:02:01.556Z,3.00
2019-02-26T13:04:30.574Z,3.10
2019-02-26T13:06:59.283Z,3.20
2019-02-26T13:09:27.972Z,3.45
2019-02-26T13:12:02.390Z,3.12
2019-02-26T13:14:26.789Z,2.72
2019-02-26T13:16:57.137Z,3.05
2019-02-26T13:19:30.164Z,3.12
2019-02-26T13:22:04.897Z,3.15
2019-02-26T13:24:26.861Z,3.42
2019-02-26T13:26:59.271Z,3.02
2019-02-26T13:29:25.794Z,4.05
2019-02-26T13:31:59.061Z,3.50
2019-02-26T13:34:25.134Z,2.95
2019-02-26T13:36:56.878Z,2.70
2019-02-26T13:39:29.788Z,2.83
2019-02-26T13:41:58.479Z,2.75
2019-02-26T13:44:24.938Z,2.92
2019-02-26T13:46:53.563Z,3.05
2019-02-26T13:49:22.223Z,4.08
2019-02-26T13:51:50.881Z,3.02
2019-02-26T13:54:19.505Z,4.62
2019-02-26T13:56:48.156Z,5.90
2019-02-26T13:59:16.806Z,5.97
2019-02-26T14:01:45.473Z,6.22
2019-02-26T14:04:14.133Z,5.33
2019-02-26T14:06:43.055Z,5.20
2019-02-26T14:09:11.738Z,5.55
2019-02-26T14:11:40.287Z,5.17
2019-02-26T14:14:08.945Z,5.08
2019-02-26T14:16:37.595Z,5.33
2019-02-26T14:19:06.227Z,4.92
2019-02-26T14:21:34.902Z,5.28
2019-02-26T14:24:03.517Z,4.42
2019-02-26T14:26:32.152Z,5.03
2019-02-26T14:29:01.119Z,4.90
2019-02-26T14:31:29.784Z,5.55
2019-02-26T14:33:58.342Z,4.85
2019-02-26T14:36:27.054Z,4.75
2019-02-26T14:38:55.674Z,4.33
2019-02-26T14:41:24.338Z,5.53
2019-02-26T14:43:52.945Z,5.67
2019-02-26T14:46:21.823Z,5.20
2019-02-26T14:48:50.559Z,5.12
2019-02-26T14:51:19.217Z,5.97
2019-02-26T14:53:49.213Z,6.28
2019-02-26T14:56:18.383Z,6.67
2019-02-26T14:58:47.900Z,5.65
2019-02-26T15:01:16.461Z,5.62
2019-02-26T15:03:45.042Z,5.92
2019-02-26T15:06:13.871Z,5.62
2019-02-26T15:08:42.529Z,6.83
2019-02-26T15:11:11.167Z,6.15
2019-02-26T15:13:40.215Z,6.15
2019-02-26T15:16:10.142Z,6.95
2019-02-26T15:18:38.711Z,6.35
2019-02-26T15:21:07.281Z,6.72
2019-02-26T15:23:35.898Z,6.00
2019-02-26T15:26:04.578Z,6.53
2019-02-26T15:28:33.205Z,6.47
2019-02-26T15:31:01.850Z,5.95
2019-02-26T15:33:30.512Z,6.30
2019-02-26T15:35:59.156Z,6.60
2019-02-26T15:38:27.746Z,6.15
2019-02-26T15:40:56.510Z,7.30
2019-02-26T15:43:25.165Z,7.22
2019-02-26T15:45:53.764Z,6.92
2019-02-26T15:48:22.432Z,6.15
2019-02-26T15:50:51.041Z,6.62
2019-02-26T15:53:23.346Z,6.97
2019-02-26T15:55:49.960Z,6.75
2019-02-26T15:58:18.637Z,5.92
2019-02-26T16:00:47.651Z,5.55
2019-02-26T16:03:16.566Z,5.75
2019-02-26T16:05:45.216Z,6.10
2019-02-26T16:08:13.870Z,5.08
2019-02-26T16:10:42.487Z,6.22
2019-02-26T16:13:11.148Z,5.83
2019-02-26T16:15:39.970Z,6.45
2019-02-26T16:18:08.606Z,5.33
2019-02-26T16:20:37.335Z,4.53
2019-02-26T16:23:05.963Z,5.90
2019-02-26T16:25:34.708Z,5.10
2019-02-26T16:28:03.341Z,7.83
2019-02-26T16:30:31.920Z,7.05
2019-02-26T16:33:00.469Z,6.80
2019-02-26T16:35:29.084Z,6.62
2019-02-26T16:37:57.855Z,8.00
2019-02-26T16:40:31.255Z,6.55
2019-02-26T16:42:57.036Z,6.92
2019-02-26T16:45:27.614Z,6.37
2019-02-26T16:47:57.356Z,6.58
2019-02-26T16:50:27.863Z,6.45
2019-02-26T16:52:57.976Z,6.08
2019-02-26T16:55:27.234Z,5.92
2019-02-26T16:57:55.858Z,6.25
2019-02-26T17:00:29.444Z,6.17
2019-02-26T17:03:00.992Z,6.20
2019-02-26T17:05:28.358Z,5.85
2019-02-26T17:07:57.196Z,7.58
2019-02-26T17:10:45.225Z,6.50
2019-02-26T17:13:13.874Z,5.28
2019-02-26T17:15:42.513Z,5.90
2019-02-26T17:18:11.108Z,5.78
2019-02-26T17:20:39.761Z,5.97
2019-02-26T17:23:08.419Z,5.58
2019-02-26T17:25:37.455Z,5.72
2019-02-26T17:28:06.106Z,6.75
2019-02-26T17:30:35.057Z,7.53
2019-02-26T17:33:03.644Z,6.33
2019-02-26T17:35:32.264Z,6.75
2019-02-26T17:38:01.299Z,9.43
2019-02-26T17:40:29.977Z,10.70
2019-02-26T17:42:58.910Z,9.00
2019-02-26T17:45:34.905Z,9.13
2019-02-26T17:48:03.702Z,6.42
2019-02-26T17:50:37.369Z,7.17
2019-02-26T17:53:06.007Z,11.40
2019-02-26T17:55:34.595Z,9.70
2019-02-26T17:58:03.237Z,10.23
2019-02-26T18:00:33.463Z,9.20
2019-02-26T18:03:06.385Z,8.30
2019-02-26T18:05:32.400Z,8.43
2019-02-26T18:08:01.012Z,8.83
2019-02-26T18:10:29.626Z,8.50
2019-02-26T18:12:58.276Z,7.50
2019-02-26T18:15:26.905Z,7.35
2019-02-26T18:17:55.559Z,15.80
2019-02-26T18:20:28.236Z,16.85
2019-02-26T18:22:54.906Z,12.53
2019-02-26T18:25:26.786Z,8.33
2019-02-26T18:27:55.468Z,11.28
2019-02-26T18:30:25.296Z,14.30
2019-02-26T18:32:57.936Z,10.28
2019-02-26T18:35:24.580Z,8.25
2019-02-26T18:37:53.190Z,9.20
2019-02-26T18:40:21.783Z,8.93
2019-02-26T18:42:50.413Z,8.78
2019-02-26T18:45:27.870Z,16.20
2019-02-26T18:47:57.531Z,11.60
2019-02-26T18:50:28.439Z,8.28
2019-02-26T18:52:58.294Z,9.85
2019-02-26T18:55:28.430Z,11.43
2019-02-26T18:57:57.527Z,11.03
2019-02-26T19:00:31.571Z,10.13
2019-02-26T19:03:00.227Z,9.85
2019-02-26T19:05:28.960Z,8.60
2019-02-26T19:07:57.576Z,8.93
2019-02-26T19:10:26.228Z,9.43
2019-02-26T19:12:55.154Z,8.75
2019-02-26T19:15:26.020Z,8.38
2019-02-26T19:17:56.904Z,9.50
2019-02-26T19:20:48.874Z,8.33
2019-02-26T19:23:15.036Z,7.20
2019-02-26T19:25:43.685Z,8.90
2019-02-26T19:28:12.308Z,7.97
2019-02-26T19:30:40.934Z,6.97
2019-02-26T19:33:09.610Z,7.92
2019-02-26T19:35:40.354Z,8.73
2019-02-26T19:38:08.530Z,7.43
2019-02-26T19:40:40.312Z,8.00
2019-02-26T19:43:08.929Z,8.30
2019-02-26T19:45:37.518Z,7.33
2019-02-26T19:48:06.509Z,8.50
2019-02-26T19:50:35.326Z,8.68
2019-02-26T19:53:04.093Z,10.55
2019-02-26T19:55:44.150Z,8.30
2019-02-26T19:58:12.769Z,6.37
2019-02-26T20:00:41.423Z,8.28
2019-02-26T20:03:10.049Z,8.63
2019-02-26T20:05:38.677Z,7.83
2019-02-26T20:08:07.329Z,8.30
2019-02-26T20:10:35.943Z,8.30
2019-02-26T20:13:04.537Z,8.27
2019-02-26T20:15:33.158Z,6.47
2019-02-26T20:18:02.195Z,7.60
2019-02-26T20:20:40.186Z,6.80
2019-02-26T20:23:05.060Z,6.90
2019-02-26T20:25:31.728Z,7.43
2019-02-26T20:28:05.345Z,6.37
2019-02-26T20:30:30.656Z,7.03
2019-02-26T20:33:01.593Z,6.70
2019-02-26T20:35:29.932Z,7.53
2019-02-26T20:37:59.268Z,7.10
2019-02-26T20:40:28.030Z,7.97
2019-02-26T20:42:57.109Z,7.20
2019-02-26T20:45:26.119Z,9.87
2019-02-26T20:47:55.112Z,8.85
2019-02-26T20:50:24.083Z,8.10
2019-02-26T20:52:52.832Z,8.53
2019-02-26T20:55:22.714Z,7.77
2019-02-26T20:57:55.460Z,7.53
2019-02-26T21:00:24.875Z,7.10
2019-02-26T21:02:52.473Z,8.33
2019-02-26T21:05:22.012Z,7.97
2019-02-26T21:07:50.575Z,7.93
2019-02-26T21:10:20.301Z,7.17
2019-02-26T21:12:48.913Z,7.70
2019-02-26T21:15:20.676Z,9.63
2019-02-26T21:17:49.292Z,10.10
2019-02-26T21:20:18.014Z,8.90
2019-02-26T21:22:46.843Z,8.80
2019-02-26T21:25:15.787Z,8.23
2019-02-26T21:27:44.421Z,7.33
2019-02-26T21:30:21.218Z,7.57
2019-02-26T21:32:49.976Z,7.63
2019-02-26T21:35:20.567Z,8.05
2019-02-26T21:37:48.993Z,8.43
2019-02-26T21:40:17.672Z,7.37
2019-02-26T21:42:46.322Z,8.03
2019-02-26T21:45:16.456Z,7.80
2019-02-26T21:47:45.210Z,7.10
2019-02-26T21:50:17.097Z,6.90
2019-02-26T21:52:58.996Z,7.30
2019-02-26T21:55:17.693Z,6.93
2019-02-26T21:57:46.369Z,7.07
2019-02-26T22:00:21.474Z,8.23
2019-02-26T22:02:52.459Z,7.97
2019-02-26T22:05:20.790Z,8.13
2019-02-26T22:07:52.175Z,7.37
2019-02-26T22:10:21.150Z,6.40
2019-02-26T22:12:49.878Z,6.93
2019-02-26T22:15:18.671Z,7.73
2019-02-26T22:17:49.141Z,7.93
2019-02-26T22:20:35.547Z,5.53
2019-02-26T22:22:53.935Z,5.90
2019-02-26T22:25:22.985Z,7.73
2019-02-26T22:27:51.667Z,6.73
2019-02-26T22:30:22.131Z,9.27
2019-02-26T22:32:51.166Z,8.03
2019-02-26T22:35:25.615Z,7.13
2019-02-26T22:37:51.790Z,7.27
2019-02-26T22:40:22.278Z,9.70
2019-02-26T22:42:52.534Z,8.90
2019-02-26T22:45:22.273Z,10.23
2019-02-26T22:47:51.087Z,10.53
2019-02-26T22:50:19.775Z,10.07
2019-02-26T22:52:48.555Z,7.27
2019-02-26T22:55:18.769Z,9.57
2019-02-26T22:57:47.347Z,12.10
2019-02-26T23:00:56.734Z,9.43
2019-02-26T23:03:25.402Z,12.57
2019-02-26T23:05:54.021Z,11.30
2019-02-26T23:08:23.180Z,14.47
2019-02-26T23:10:51.828Z,12.90
2019-02-26T23:13:20.736Z,14.23
2019-02-26T23:15:50.282Z,13.87
2019-02-26T23:18:19.979Z,15.67
2019-02-26T23:20:49.052Z,14.77
2019-02-26T23:23:21.682Z,14.87
2019-02-26T23:25:48.100Z,13.77
2019-02-26T23:28:21.669Z,15.67
2019-02-26T23:30:47.993Z,14.63
2019-02-26T23:33:16.812Z,13.77
2019-02-26T23:35:47.070Z,10.43
2019-02-26T23:38:15.854Z,15.63
2019-02-26T23:40:44.606Z,14.20
2019-02-26T23:43:15.402Z,12.27
2019-02-26T23:45:45.425Z,13.40
2019-02-26T23:48:16.041Z,13.30
2019-02-26T23:50:47.077Z,12.87
2019-02-26T23:53:15.146Z,13.67
2019-02-26T23:55:47.962Z,13.90
2019-02-26T23:58:14.437Z,14.13
